sensor_id;sensor_type;location;lat;lon;timestamp;P1;durP1;ratioP1;P2;durP2;ratioP2
15689;SDS011;7945;48.816;11.506;2023-07-09T00:00:38;6.45;;;4.20;;
15689;SDS011;7945;48.816;11.506;2023-07-09T00:03:05;5.80;;;4.47;;
15689;SDS011;7945;48.816;11.506;2023-07-09T00:05:32;5.70;;;4.18;;
15689;SDS011;7945;48.816;11.506;2023-07-09T00:07:58;4.93;;;4.30;;
15689;SDS011;7945;48.816;11.506;2023-07-09T00:10:26;6.15;;;4.47;;
15689;SDS011;7945;48.816;11.506;2023-07-09T00:12:52;5.55;;;4.80;;
15689;SDS011;7945;48.816;11.506;2023-07-09T00:15:19;5.20;;;4.53;;
15689;SDS011;7945;48.816;11.506;2023-07-09T00:17:48;6.15;;;4.75;;
15689;SDS011;7945;48.816;11.506;2023-07-09T00:20:16;5.05;;;4.47;;
15689;SDS011;7945;48.816;11.506;2023-07-09T00:22:44;6.20;;;4.40;;
15689;SDS011;7945;48.816;11.506;2023-07-09T00:25:13;5.07;;;4.40;;
15689;SDS011;7945;48.816;11.506;2023-07-09T00:27:42;7.25;;;5.03;;
15689;SDS011;7945;48.816;11.506;2023-07-09T00:30:13;6.05;;;4.68;;
15689;SDS011;7945;48.816;11.506;2023-07-09T00:32:42;5.80;;;4.80;;
15689;SDS011;7945;48.816;11.506;2023-07-09T00:35:10;7.68;;;5.00;;
15689;SDS011;7945;48.816;11.506;2023-07-09T00:37:40;6.13;;;4.70;;
15689;SDS011;7945;48.816;11.506;2023-07-09T00:40:10;7.40;;;4.70;;
15689;SDS011;7945;48.816;11.506;2023-07-09T00:42:43;5.70;;;4.88;;
15689;SDS011;7945;48.816;11.506;2023-07-09T00:45:16;7.88;;;5.05;;
15689;SDS011;7945;48.816;11.506;2023-07-09T00:47:47;7.95;;;5.05;;
15689;SDS011;7945;48.816;11.506;2023-07-09T00:50:21;5.25;;;4.63;;
15689;SDS011;7945;48.816;11.506;2023-07-09T00:52:56;6.00;;;4.18;;
15689;SDS011;7945;48.816;11.506;2023-07-09T00:55:28;6.07;;;4.40;;
15689;SDS011;7945;48.816;11.506;2023-07-09T00:57:59;6.93;;;4.68;;
15689;SDS011;7945;48.816;11.506;2023-07-09T01:00:30;5.78;;;4.63;;
15689;SDS011;7945;48.816;11.506;2023-07-09T01:03:07;6.22;;;4.80;;
15689;SDS011;7945;48.816;11.506;2023-07-09T01:05:37;7.28;;;4.28;;
15689;SDS011;7945;48.816;11.506;2023-07-09T01:10:32;6.95;;;4.60;;
15689;SDS011;7945;48.816;11.506;2023-07-09T01:12:58;6.13;;;4.88;;
15689;SDS011;7945;48.816;11.506;2023-07-09T01:15:25;7.53;;;5.55;;
15689;SDS011;7945;48.816;11.506;2023-07-09T01:17:52;7.22;;;4.85;;
15689;SDS011;7945;48.816;11.506;2023-07-09T01:20:19;8.63;;;5.15;;
15689;SDS011;7945;48.816;11.506;2023-07-09T01:22:48;6.53;;;4.90;;
15689;SDS011;7945;48.816;11.506;2023-07-09T01:25:19;6.93;;;4.80;;
15689;SDS011;7945;48.816;11.506;2023-07-09T01:27:47;5.90;;;4.80;;
15689;SDS011;7945;48.816;11.506;2023-07-09T01:30:17;5.93;;;5.05;;
15689;SDS011;7945;48.816;11.506;2023-07-09T01:32:47;6.30;;;4.97;;
15689;SDS011;7945;48.816;11.506;2023-07-09T01:35:15;8.10;;;5.20;;
15689;SDS011;7945;48.816;11.506;2023-07-09T01:37:43;7.80;;;5.10;;
15689;SDS011;7945;48.816;11.506;2023-07-09T01:40:14;7.20;;;5.22;;
15689;SDS011;7945;48.816;11.506;2023-07-09T01:42:42;5.57;;;4.95;;
15689;SDS011;7945;48.816;11.506;2023-07-09T01:45:10;6.22;;;4.85;;
15689;SDS011;7945;48.816;11.506;2023-07-09T01:47:37;6.60;;;4.95;;
15689;SDS011;7945;48.816;11.506;2023-07-09T01:50:04;7.03;;;5.15;;
15689;SDS011;7945;48.816;11.506;2023-07-09T01:52:33;5.95;;;5.20;;
15689;SDS011;7945;48.816;11.506;2023-07-09T01:55:00;5.68;;;5.13;;
15689;SDS011;7945;48.816;11.506;2023-07-09T01:57:29;7.07;;;5.38;;
15689;SDS011;7945;48.816;11.506;2023-07-09T02:00:00;6.40;;;5.00;;
15689;SDS011;7945;48.816;11.506;2023-07-09T02:02:31;6.85;;;5.35;;
15689;SDS011;7945;48.816;11.506;2023-07-09T02:04:58;6.72;;;5.15;;
15689;SDS011;7945;48.816;11.506;2023-07-09T02:07:26;6.25;;;4.90;;
15689;SDS011;7945;48.816;11.506;2023-07-09T02:09:53;7.75;;;5.70;;
15689;SDS011;7945;48.816;11.506;2023-07-09T02:12:19;6.22;;;5.25;;
15689;SDS011;7945;48.816;11.506;2023-07-09T02:14:48;6.45;;;5.10;;
15689;SDS011;7945;48.816;11.506;2023-07-09T02:17:15;6.82;;;5.63;;
15689;SDS011;7945;48.816;11.506;2023-07-09T02:19:41;8.88;;;5.72;;
15689;SDS011;7945;48.816;11.506;2023-07-09T02:22:09;7.10;;;5.88;;
15689;SDS011;7945;48.816;11.506;2023-07-09T02:24:36;6.93;;;5.32;;
15689;SDS011;7945;48.816;11.506;2023-07-09T02:27:04;6.45;;;5.15;;
15689;SDS011;7945;48.816;11.506;2023-07-09T02:29:33;7.47;;;5.47;;
15689;SDS011;7945;48.816;11.506;2023-07-09T02:32:01;6.32;;;5.15;;
15689;SDS011;7945;48.816;11.506;2023-07-09T02:34:29;5.70;;;5.10;;
15689;SDS011;7945;48.816;11.506;2023-07-09T02:36:57;7.32;;;5.28;;
15689;SDS011;7945;48.816;11.506;2023-07-09T02:39:25;9.13;;;5.05;;
15689;SDS011;7945;48.816;11.506;2023-07-09T02:41:52;8.38;;;5.68;;
15689;SDS011;7945;48.816;11.506;2023-07-09T02:44:18;6.32;;;5.20;;
15689;SDS011;7945;48.816;11.506;2023-07-09T02:46:45;7.43;;;5.45;;
15689;SDS011;7945;48.816;11.506;2023-07-09T02:49:14;8.27;;;5.78;;
15689;SDS011;7945;48.816;11.506;2023-07-09T02:51:41;7.78;;;5.75;;
15689;SDS011;7945;48.816;11.506;2023-07-09T02:54:08;7.05;;;5.60;;
15689;SDS011;7945;48.816;11.506;2023-07-09T02:56:34;9.80;;;5.22;;
15689;SDS011;7945;48.816;11.506;2023-07-09T02:59:01;5.72;;;5.05;;
15689;SDS011;7945;48.816;11.506;2023-07-09T03:01:28;5.47;;;4.97;;
15689;SDS011;7945;48.816;11.506;2023-07-09T03:03:57;9.00;;;5.43;;
15689;SDS011;7945;48.816;11.506;2023-07-09T03:06:26;7.15;;;5.68;;
15689;SDS011;7945;48.816;11.506;2023-07-09T03:08:53;6.72;;;5.50;;
15689;SDS011;7945;48.816;11.506;2023-07-09T03:11:20;7.15;;;5.60;;
15689;SDS011;7945;48.816;11.506;2023-07-09T03:13:47;6.55;;;5.13;;
15689;SDS011;7945;48.816;11.506;2023-07-09T03:16:14;11.80;;;5.60;;
15689;SDS011;7945;48.816;11.506;2023-07-09T03:18:44;7.40;;;5.68;;
15689;SDS011;7945;48.816;11.506;2023-07-09T03:21:11;6.63;;;5.40;;
15689;SDS011;7945;48.816;11.506;2023-07-09T03:23:39;6.28;;;5.32;;
15689;SDS011;7945;48.816;11.506;2023-07-09T03:26:06;8.15;;;6.07;;
15689;SDS011;7945;48.816;11.506;2023-07-09T03:28:33;6.38;;;5.55;;
15689;SDS011;7945;48.816;11.506;2023-07-09T03:31:00;8.50;;;5.63;;
15689;SDS011;7945;48.816;11.506;2023-07-09T03:33:26;6.63;;;5.30;;
15689;SDS011;7945;48.816;11.506;2023-07-09T03:35:53;6.53;;;5.30;;
15689;SDS011;7945;48.816;11.506;2023-07-09T03:38:20;9.02;;;6.00;;
15689;SDS011;7945;48.816;11.506;2023-07-09T03:40:50;7.85;;;5.57;;
15689;SDS011;7945;48.816;11.506;2023-07-09T03:43:17;7.80;;;5.78;;
15689;SDS011;7945;48.816;11.506;2023-07-09T03:45:44;6.78;;;5.70;;
15689;SDS011;7945;48.816;11.506;2023-07-09T03:48:12;6.30;;;5.70;;
15689;SDS011;7945;48.816;11.506;2023-07-09T03:50:39;6.30;;;5.03;;
15689;SDS011;7945;48.816;11.506;2023-07-09T03:53:07;11.73;;;6.20;;
15689;SDS011;7945;48.816;11.506;2023-07-09T03:55:34;7.85;;;5.85;;
15689;SDS011;7945;48.816;11.506;2023-07-09T03:58:02;8.60;;;5.78;;
15689;SDS011;7945;48.816;11.506;2023-07-09T04:00:29;8.05;;;5.38;;
15689;SDS011;7945;48.816;11.506;2023-07-09T04:02:56;7.22;;;5.53;;
15689;SDS011;7945;48.816;11.506;2023-07-09T04:05:23;9.05;;;5.80;;
15689;SDS011;7945;48.816;11.506;2023-07-09T04:07:50;6.88;;;5.63;;
15689;SDS011;7945;48.816;11.506;2023-07-09T04:10:17;8.57;;;6.70;;
15689;SDS011;7945;48.816;11.506;2023-07-09T04:12:45;7.47;;;5.78;;
15689;SDS011;7945;48.816;11.506;2023-07-09T04:15:13;8.98;;;6.47;;
15689;SDS011;7945;48.816;11.506;2023-07-09T04:17:40;10.68;;;5.85;;
15689;SDS011;7945;48.816;11.506;2023-07-09T04:20:08;8.07;;;5.82;;
15689;SDS011;7945;48.816;11.506;2023-07-09T04:22:35;8.70;;;5.90;;
15689;SDS011;7945;48.816;11.506;2023-07-09T04:25:03;6.80;;;5.40;;
15689;SDS011;7945;48.816;11.506;2023-07-09T04:27:34;8.07;;;6.00;;
15689;SDS011;7945;48.816;11.506;2023-07-09T04:30:01;8.38;;;6.20;;
15689;SDS011;7945;48.816;11.506;2023-07-09T04:32:31;8.02;;;6.25;;
15689;SDS011;7945;48.816;11.506;2023-07-09T04:34:58;7.80;;;5.85;;
15689;SDS011;7945;48.816;11.506;2023-07-09T04:37:25;9.43;;;6.60;;
15689;SDS011;7945;48.816;11.506;2023-07-09T04:39:51;8.25;;;6.72;;
15689;SDS011;7945;48.816;11.506;2023-07-09T04:42:18;9.57;;;6.50;;
15689;SDS011;7945;48.816;11.506;2023-07-09T04:44:45;8.02;;;6.90;;
15689;SDS011;7945;48.816;11.506;2023-07-09T04:47:12;9.43;;;6.07;;
15689;SDS011;7945;48.816;11.506;2023-07-09T04:49:40;8.35;;;6.25;;
15689;SDS011;7945;48.816;11.506;2023-07-09T04:52:07;6.90;;;5.60;;
15689;SDS011;7945;48.816;11.506;2023-07-09T04:54:37;8.85;;;6.05;;
15689;SDS011;7945;48.816;11.506;2023-07-09T04:57:05;8.75;;;5.95;;
15689;SDS011;7945;48.816;11.506;2023-07-09T04:59:32;7.40;;;5.93;;
15689;SDS011;7945;48.816;11.506;2023-07-09T05:01:59;8.95;;;5.85;;
15689;SDS011;7945;48.816;11.506;2023-07-09T05:04:26;6.55;;;5.70;;
15689;SDS011;7945;48.816;11.506;2023-07-09T05:06:54;7.55;;;5.63;;
15689;SDS011;7945;48.816;11.506;2023-07-09T05:09:20;10.63;;;6.15;;
15689;SDS011;7945;48.816;11.506;2023-07-09T05:11:48;6.80;;;5.90;;
15689;SDS011;7945;48.816;11.506;2023-07-09T05:14:16;6.30;;;5.68;;
15689;SDS011;7945;48.816;11.506;2023-07-09T05:16:43;7.45;;;5.88;;
15689;SDS011;7945;48.816;11.506;2023-07-09T05:19:10;8.23;;;5.40;;
15689;SDS011;7945;48.816;11.506;2023-07-09T05:21:37;6.70;;;5.55;;
15689;SDS011;7945;48.816;11.506;2023-07-09T05:24:06;7.30;;;5.60;;
15689;SDS011;7945;48.816;11.506;2023-07-09T05:26:33;7.00;;;5.80;;
15689;SDS011;7945;48.816;11.506;2023-07-09T05:28:59;8.43;;;5.93;;
15689;SDS011;7945;48.816;11.506;2023-07-09T05:31:27;8.40;;;6.00;;
15689;SDS011;7945;48.816;11.506;2023-07-09T05:33:54;8.95;;;5.70;;
15689;SDS011;7945;48.816;11.506;2023-07-09T05:36:21;8.32;;;5.35;;
15689;SDS011;7945;48.816;11.506;2023-07-09T05:38:47;7.97;;;5.57;;
15689;SDS011;7945;48.816;11.506;2023-07-09T05:41:16;7.65;;;5.80;;
15689;SDS011;7945;48.816;11.506;2023-07-09T05:43:43;7.72;;;5.53;;
15689;SDS011;7945;48.816;11.506;2023-07-09T05:46:10;8.48;;;5.32;;
15689;SDS011;7945;48.816;11.506;2023-07-09T05:48:38;6.72;;;5.72;;
15689;SDS011;7945;48.816;11.506;2023-07-09T05:51:05;7.63;;;5.43;;
15689;SDS011;7945;48.816;11.506;2023-07-09T05:53:31;7.97;;;5.53;;
15689;SDS011;7945;48.816;11.506;2023-07-09T05:55:58;6.50;;;5.63;;
15689;SDS011;7945;48.816;11.506;2023-07-09T05:58:27;8.35;;;6.10;;
15689;SDS011;7945;48.816;11.506;2023-07-09T06:00:53;6.75;;;5.50;;
15689;SDS011;7945;48.816;11.506;2023-07-09T06:03:21;6.60;;;5.55;;
15689;SDS011;7945;48.816;11.506;2023-07-09T06:05:51;6.97;;;5.97;;
15689;SDS011;7945;48.816;11.506;2023-07-09T06:08:18;6.57;;;5.80;;
15689;SDS011;7945;48.816;11.506;2023-07-09T06:10:52;6.40;;;5.22;;
15689;SDS011;7945;48.816;11.506;2023-07-09T06:15:32;8.20;;;5.70;;
15689;SDS011;7945;48.816;11.506;2023-07-09T06:17:59;8.40;;;5.68;;
15689;SDS011;7945;48.816;11.506;2023-07-09T06:20:26;7.78;;;5.75;;
15689;SDS011;7945;48.816;11.506;2023-07-09T06:22:52;6.55;;;5.60;;
15689;SDS011;7945;48.816;11.506;2023-07-09T06:25:19;6.97;;;5.10;;
15689;SDS011;7945;48.816;11.506;2023-07-09T06:27:46;6.65;;;5.70;;
15689;SDS011;7945;48.816;11.506;2023-07-09T06:30:12;7.70;;;6.00;;
15689;SDS011;7945;48.816;11.506;2023-07-09T06:32:41;8.55;;;5.88;;
15689;SDS011;7945;48.816;11.506;2023-07-09T06:35:08;6.82;;;5.53;;
15689;SDS011;7945;48.816;11.506;2023-07-09T06:37:34;7.90;;;6.22;;
15689;SDS011;7945;48.816;11.506;2023-07-09T06:40:01;7.25;;;5.60;;
15689;SDS011;7945;48.816;11.506;2023-07-09T06:42:29;9.32;;;6.38;;
15689;SDS011;7945;48.816;11.506;2023-07-09T06:44:56;8.38;;;6.28;;
15689;SDS011;7945;48.816;11.506;2023-07-09T06:47:23;7.55;;;6.00;;
15689;SDS011;7945;48.816;11.506;2023-07-09T06:49:51;10.93;;;6.10;;
15689;SDS011;7945;48.816;11.506;2023-07-09T06:52:18;7.65;;;5.90;;
15689;SDS011;7945;48.816;11.506;2023-07-09T06:54:44;7.75;;;6.38;;
15689;SDS011;7945;48.816;11.506;2023-07-09T06:57:11;7.38;;;6.40;;
15689;SDS011;7945;48.816;11.506;2023-07-09T06:59:38;9.30;;;5.82;;
15689;SDS011;7945;48.816;11.506;2023-07-09T07:02:05;8.40;;;6.55;;
15689;SDS011;7945;48.816;11.506;2023-07-09T07:04:32;8.80;;;6.43;;
15689;SDS011;7945;48.816;11.506;2023-07-09T07:07:00;8.23;;;6.30;;
15689;SDS011;7945;48.816;11.506;2023-07-09T07:09:26;8.85;;;6.63;;
15689;SDS011;7945;48.816;11.506;2023-07-09T07:11:53;7.90;;;5.97;;
15689;SDS011;7945;48.816;11.506;2023-07-09T07:14:20;8.20;;;6.13;;
15689;SDS011;7945;48.816;11.506;2023-07-09T07:16:47;8.13;;;5.95;;
15689;SDS011;7945;48.816;11.506;2023-07-09T07:19:13;9.43;;;6.40;;
15689;SDS011;7945;48.816;11.506;2023-07-09T07:21:40;9.60;;;6.60;;
15689;SDS011;7945;48.816;11.506;2023-07-09T07:24:08;8.30;;;6.35;;
15689;SDS011;7945;48.816;11.506;2023-07-09T07:26:35;8.68;;;6.30;;
15689;SDS011;7945;48.816;11.506;2023-07-09T07:29:01;12.05;;;7.28;;
15689;SDS011;7945;48.816;11.506;2023-07-09T07:31:28;8.98;;;6.25;;
15689;SDS011;7945;48.816;11.506;2023-07-09T07:33:55;8.65;;;6.57;;
15689;SDS011;7945;48.816;11.506;2023-07-09T07:36:21;10.18;;;6.65;;
15689;SDS011;7945;48.816;11.506;2023-07-09T07:38:48;9.55;;;7.05;;
15689;SDS011;7945;48.816;11.506;2023-07-09T07:41:16;10.88;;;6.57;;
15689;SDS011;7945;48.816;11.506;2023-07-09T07:43:43;9.45;;;7.20;;
15689;SDS011;7945;48.816;11.506;2023-07-09T07:46:10;9.27;;;7.25;;
15689;SDS011;7945;48.816;11.506;2023-07-09T07:48:37;12.90;;;7.57;;
15689;SDS011;7945;48.816;11.506;2023-07-09T07:51:03;10.18;;;7.93;;
15689;SDS011;7945;48.816;11.506;2023-07-09T07:53:30;10.32;;;7.25;;
15689;SDS011;7945;48.816;11.506;2023-07-09T07:55:58;9.80;;;7.47;;
15689;SDS011;7945;48.816;11.506;2023-07-09T07:58:28;9.93;;;6.93;;
15689;SDS011;7945;48.816;11.506;2023-07-09T08:00:55;10.60;;;7.10;;
15689;SDS011;7945;48.816;11.506;2023-07-09T08:03:22;9.57;;;7.88;;
15689;SDS011;7945;48.816;11.506;2023-07-09T08:05:49;13.45;;;8.00;;
15689;SDS011;7945;48.816;11.506;2023-07-09T08:08:16;10.55;;;7.70;;
15689;SDS011;7945;48.816;11.506;2023-07-09T08:10:42;10.65;;;7.78;;
15689;SDS011;7945;48.816;11.506;2023-07-09T08:13:09;10.35;;;7.50;;
15689;SDS011;7945;48.816;11.506;2023-07-09T08:15:37;11.35;;;7.80;;
15689;SDS011;7945;48.816;11.506;2023-07-09T08:18:04;10.20;;;8.05;;
15689;SDS011;7945;48.816;11.506;2023-07-09T08:20:31;11.73;;;7.88;;
15689;SDS011;7945;48.816;11.506;2023-07-09T08:22:59;11.23;;;8.40;;
15689;SDS011;7945;48.816;11.506;2023-07-09T08:25:25;12.30;;;8.57;;
15689;SDS011;7945;48.816;11.506;2023-07-09T08:27:52;10.55;;;8.02;;
15689;SDS011;7945;48.816;11.506;2023-07-09T08:30:19;9.93;;;8.10;;
15689;SDS011;7945;48.816;11.506;2023-07-09T08:32:47;9.70;;;7.43;;
15689;SDS011;7945;48.816;11.506;2023-07-09T08:35:13;11.25;;;7.70;;
15689;SDS011;7945;48.816;11.506;2023-07-09T08:37:41;11.10;;;8.32;;
15689;SDS011;7945;48.816;11.506;2023-07-09T08:40:09;10.20;;;8.00;;
15689;SDS011;7945;48.816;11.506;2023-07-09T08:42:40;10.68;;;7.63;;
15689;SDS011;7945;48.816;11.506;2023-07-09T08:45:17;10.60;;;7.18;;
15689;SDS011;7945;48.816;11.506;2023-07-09T08:47:57;10.15;;;7.60;;
15689;SDS011;7945;48.816;11.506;2023-07-09T08:50:31;10.50;;;8.25;;
15689;SDS011;7945;48.816;11.506;2023-07-09T08:53:02;10.52;;;7.00;;
15689;SDS011;7945;48.816;11.506;2023-07-09T08:55:31;11.93;;;7.72;;
15689;SDS011;7945;48.816;11.506;2023-07-09T08:58:08;13.05;;;7.88;;
15689;SDS011;7945;48.816;11.506;2023-07-09T09:00:40;9.82;;;6.25;;
15689;SDS011;7945;48.816;11.506;2023-07-09T09:03:14;11.60;;;7.18;;
15689;SDS011;7945;48.816;11.506;2023-07-09T09:05:49;8.13;;;6.53;;
15689;SDS011;7945;48.816;11.506;2023-07-09T09:08:19;10.50;;;7.28;;
15689;SDS011;7945;48.816;11.506;2023-07-09T09:10:57;8.60;;;6.28;;
15689;SDS011;7945;48.816;11.506;2023-07-09T09:13:34;9.77;;;6.38;;
15689;SDS011;7945;48.816;11.506;2023-07-09T09:16:04;7.35;;;5.50;;
15689;SDS011;7945;48.816;11.506;2023-07-09T09:18:42;10.77;;;5.32;;
15689;SDS011;7945;48.816;11.506;2023-07-09T09:21:13;8.38;;;5.80;;
15689;SDS011;7945;48.816;11.506;2023-07-09T09:23:45;8.50;;;5.95;;
15689;SDS011;7945;48.816;11.506;2023-07-09T09:26:18;11.88;;;6.22;;
15689;SDS011;7945;48.816;11.506;2023-07-09T09:28:49;8.23;;;5.88;;
15689;SDS011;7945;48.816;11.506;2023-07-09T09:31:15;7.40;;;4.72;;
15689;SDS011;7945;48.816;11.506;2023-07-09T09:33:46;7.05;;;4.50;;
15689;SDS011;7945;48.816;11.506;2023-07-09T09:36:15;7.90;;;5.32;;
15689;SDS011;7945;48.816;11.506;2023-07-09T09:38:43;8.30;;;5.22;;
15689;SDS011;7945;48.816;11.506;2023-07-09T09:41:14;7.90;;;4.50;;
15689;SDS011;7945;48.816;11.506;2023-07-09T09:43:42;7.75;;;4.80;;
15689;SDS011;7945;48.816;11.506;2023-07-09T09:46:15;10.70;;;4.30;;
15689;SDS011;7945;48.816;11.506;2023-07-09T09:48:46;5.22;;;3.38;;
15689;SDS011;7945;48.816;11.506;2023-07-09T09:51:13;4.00;;;2.80;;
15689;SDS011;7945;48.816;11.506;2023-07-09T09:53:41;5.78;;;3.75;;
15689;SDS011;7945;48.816;11.506;2023-07-09T09:56:14;5.70;;;4.03;;
15689;SDS011;7945;48.816;11.506;2023-07-09T09:58:44;7.05;;;4.38;;
15689;SDS011;7945;48.816;11.506;2023-07-09T10:01:12;5.20;;;3.95;;
15689;SDS011;7945;48.816;11.506;2023-07-09T10:03:41;7.57;;;3.38;;
15689;SDS011;7945;48.816;11.506;2023-07-09T10:06:12;5.63;;;3.65;;
15689;SDS011;7945;48.816;11.506;2023-07-09T10:08:45;7.70;;;4.00;;
15689;SDS011;7945;48.816;11.506;2023-07-09T10:11:24;4.82;;;4.00;;
15689;SDS011;7945;48.816;11.506;2023-07-09T10:13:58;5.53;;;3.47;;
15689;SDS011;7945;48.816;11.506;2023-07-09T10:16:31;7.15;;;4.03;;
15689;SDS011;7945;48.816;11.506;2023-07-09T10:19:04;4.72;;;3.50;;
15689;SDS011;7945;48.816;11.506;2023-07-09T10:21:42;4.57;;;3.53;;
15689;SDS011;7945;48.816;11.506;2023-07-09T10:24:22;6.10;;;4.38;;
15689;SDS011;7945;48.816;11.506;2023-07-09T10:27:00;6.93;;;3.40;;
15689;SDS011;7945;48.816;11.506;2023-07-09T10:29:39;5.07;;;3.47;;
15689;SDS011;7945;48.816;11.506;2023-07-09T10:32:17;4.70;;;3.58;;
15689;SDS011;7945;48.816;11.506;2023-07-09T10:34:55;6.55;;;3.40;;
15689;SDS011;7945;48.816;11.506;2023-07-09T10:40:28;5.22;;;3.03;;
15689;SDS011;7945;48.816;11.506;2023-07-09T10:43:00;5.25;;;3.55;;
15689;SDS011;7945;48.816;11.506;2023-07-09T10:45:30;5.25;;;3.17;;
15689;SDS011;7945;48.816;11.506;2023-07-09T10:48:02;5.40;;;3.95;;
15689;SDS011;7945;48.816;11.506;2023-07-09T10:50:36;6.18;;;3.42;;
15689;SDS011;7945;48.816;11.506;2023-07-09T10:53:08;5.63;;;4.10;;
15689;SDS011;7945;48.816;11.506;2023-07-09T10:55:41;5.20;;;3.97;;
15689;SDS011;7945;48.816;11.506;2023-07-09T10:58:19;5.75;;;3.40;;
15689;SDS011;7945;48.816;11.506;2023-07-09T11:00:51;4.80;;;3.50;;
15689;SDS011;7945;48.816;11.506;2023-07-09T11:03:19;4.78;;;3.30;;
15689;SDS011;7945;48.816;11.506;2023-07-09T11:05:49;5.22;;;3.33;;
15689;SDS011;7945;48.816;11.506;2023-07-09T11:08:18;6.10;;;3.85;;
15689;SDS011;7945;48.816;11.506;2023-07-09T11:10:50;4.43;;;3.10;;
15689;SDS011;7945;48.816;11.506;2023-07-09T11:13:23;5.43;;;3.10;;
15689;SDS011;7945;48.816;11.506;2023-07-09T11:16:00;5.35;;;3.13;;
15689;SDS011;7945;48.816;11.506;2023-07-09T11:18:30;4.35;;;3.08;;
15689;SDS011;7945;48.816;11.506;2023-07-09T11:21:00;5.72;;;3.53;;
15689;SDS011;7945;48.816;11.506;2023-07-09T11:23:45;4.82;;;3.55;;
15689;SDS011;7945;48.816;11.506;2023-07-09T11:26:21;5.75;;;3.53;;
15689;SDS011;7945;48.816;11.506;2023-07-09T11:28:50;4.03;;;3.13;;
15689;SDS011;7945;48.816;11.506;2023-07-09T11:31:20;4.50;;;3.00;;
15689;SDS011;7945;48.816;11.506;2023-07-09T11:33:49;4.35;;;3.20;;
15689;SDS011;7945;48.816;11.506;2023-07-09T11:36:26;3.75;;;3.08;;
15689;SDS011;7945;48.816;11.506;2023-07-09T11:38:55;6.65;;;3.38;;
15689;SDS011;7945;48.816;11.506;2023-07-09T11:41:25;3.72;;;2.95;;
15689;SDS011;7945;48.816;11.506;2023-07-09T11:44:00;3.80;;;3.22;;
15689;SDS011;7945;48.816;11.506;2023-07-09T11:46:30;4.07;;;3.03;;
15689;SDS011;7945;48.816;11.506;2023-07-09T11:48:58;4.30;;;3.17;;
15689;SDS011;7945;48.816;11.506;2023-07-09T11:51:29;5.65;;;3.03;;
15689;SDS011;7945;48.816;11.506;2023-07-09T11:54:04;3.80;;;2.80;;
15689;SDS011;7945;48.816;11.506;2023-07-09T11:56:32;6.38;;;3.40;;
15689;SDS011;7945;48.816;11.506;2023-07-09T11:58:59;5.88;;;2.85;;
15689;SDS011;7945;48.816;11.506;2023-07-09T12:01:26;6.93;;;3.53;;
15689;SDS011;7945;48.816;11.506;2023-07-09T12:03:56;7.00;;;3.75;;
15689;SDS011;7945;48.816;11.506;2023-07-09T12:06:24;5.35;;;3.30;;
15689;SDS011;7945;48.816;11.506;2023-07-09T12:08:54;5.63;;;3.20;;
15689;SDS011;7945;48.816;11.506;2023-07-09T12:11:23;6.32;;;3.30;;
15689;SDS011;7945;48.816;11.506;2023-07-09T12:13:52;4.45;;;2.90;;
15689;SDS011;7945;48.816;11.506;2023-07-09T12:16:21;4.60;;;3.20;;
15689;SDS011;7945;48.816;11.506;2023-07-09T12:18:49;5.15;;;3.00;;
15689;SDS011;7945;48.816;11.506;2023-07-09T12:21:15;5.03;;;2.88;;
15689;SDS011;7945;48.816;11.506;2023-07-09T12:23:42;6.60;;;3.00;;
15689;SDS011;7945;48.816;11.506;2023-07-09T12:26:11;5.63;;;3.00;;
15689;SDS011;7945;48.816;11.506;2023-07-09T12:28:41;5.60;;;3.30;;
15689;SDS011;7945;48.816;11.506;2023-07-09T12:31:12;5.03;;;3.30;;
15689;SDS011;7945;48.816;11.506;2023-07-09T12:33:46;4.68;;;2.85;;
15689;SDS011;7945;48.816;11.506;2023-07-09T12:36:14;5.28;;;3.80;;
15689;SDS011;7945;48.816;11.506;2023-07-09T12:38:41;4.47;;;2.97;;
15689;SDS011;7945;48.816;11.506;2023-07-09T12:41:14;6.28;;;3.70;;
15689;SDS011;7945;48.816;11.506;2023-07-09T12:43:46;7.72;;;3.30;;
15689;SDS011;7945;48.816;11.506;2023-07-09T12:46:14;5.07;;;2.83;;
15689;SDS011;7945;48.816;11.506;2023-07-09T12:48:41;4.25;;;2.65;;
15689;SDS011;7945;48.816;11.506;2023-07-09T12:51:08;5.18;;;3.42;;
15689;SDS011;7945;48.816;11.506;2023-07-09T12:53:35;5.13;;;3.22;;
15689;SDS011;7945;48.816;11.506;2023-07-09T12:56:03;4.13;;;3.15;;
15689;SDS011;7945;48.816;11.506;2023-07-09T12:58:38;3.78;;;2.97;;
15689;SDS011;7945;48.816;11.506;2023-07-09T13:01:07;6.20;;;3.30;;
15689;SDS011;7945;48.816;11.506;2023-07-09T13:03:40;4.50;;;3.03;;
15689;SDS011;7945;48.816;11.506;2023-07-09T13:06:23;6.88;;;3.45;;
15689;SDS011;7945;48.816;11.506;2023-07-09T13:08:55;5.07;;;3.03;;
15689;SDS011;7945;48.816;11.506;2023-07-09T13:11:23;6.15;;;3.05;;
15689;SDS011;7945;48.816;11.506;2023-07-09T13:13:54;5.50;;;3.45;;
15689;SDS011;7945;48.816;11.506;2023-07-09T13:16:22;8.23;;;3.35;;
15689;SDS011;7945;48.816;11.506;2023-07-09T13:18:49;5.53;;;3.30;;
15689;SDS011;7945;48.816;11.506;2023-07-09T13:21:17;4.47;;;2.70;;
15689;SDS011;7945;48.816;11.506;2023-07-09T13:23:45;8.25;;;3.40;;
15689;SDS011;7945;48.816;11.506;2023-07-09T13:26:12;5.55;;;3.58;;
15689;SDS011;7945;48.816;11.506;2023-07-09T13:28:38;5.20;;;3.30;;
15689;SDS011;7945;48.816;11.506;2023-07-09T13:31:08;4.80;;;3.10;;
15689;SDS011;7945;48.816;11.506;2023-07-09T13:33:39;3.95;;;3.15;;
15689;SDS011;7945;48.816;11.506;2023-07-09T13:36:06;5.15;;;3.20;;
15689;SDS011;7945;48.816;11.506;2023-07-09T13:38:34;6.05;;;3.38;;
15689;SDS011;7945;48.816;11.506;2023-07-09T13:41:01;3.88;;;3.33;;
15689;SDS011;7945;48.816;11.506;2023-07-09T13:43:36;3.63;;;3.03;;
15689;SDS011;7945;48.816;11.506;2023-07-09T13:46:05;4.25;;;2.92;;
15689;SDS011;7945;48.816;11.506;2023-07-09T13:48:33;5.15;;;3.30;;
15689;SDS011;7945;48.816;11.506;2023-07-09T13:51:05;3.63;;;3.13;;
15689;SDS011;7945;48.816;11.506;2023-07-09T13:53:39;3.47;;;2.92;;
15689;SDS011;7945;48.816;11.506;2023-07-09T13:56:06;6.05;;;3.17;;
15689;SDS011;7945;48.816;11.506;2023-07-09T13:58:33;5.70;;;3.17;;
15689;SDS011;7945;48.816;11.506;2023-07-09T14:01:05;6.53;;;3.15;;
15689;SDS011;7945;48.816;11.506;2023-07-09T14:03:37;5.70;;;3.08;;
15689;SDS011;7945;48.816;11.506;2023-07-09T14:06:05;6.13;;;3.15;;
15689;SDS011;7945;48.816;11.506;2023-07-09T14:08:37;4.30;;;3.47;;
15689;SDS011;7945;48.816;11.506;2023-07-09T14:11:07;4.95;;;3.30;;
15689;SDS011;7945;48.816;11.506;2023-07-09T14:13:36;5.35;;;3.35;;
15689;SDS011;7945;48.816;11.506;2023-07-09T14:16:03;5.35;;;3.05;;
15689;SDS011;7945;48.816;11.506;2023-07-09T14:18:30;5.47;;;3.10;;
15689;SDS011;7945;48.816;11.506;2023-07-09T14:20:57;4.38;;;2.80;;
15689;SDS011;7945;48.816;11.506;2023-07-09T14:23:25;6.43;;;3.33;;
15689;SDS011;7945;48.816;11.506;2023-07-09T14:25:52;5.53;;;3.47;;
15689;SDS011;7945;48.816;11.506;2023-07-09T14:28:19;4.22;;;3.30;;
15689;SDS011;7945;48.816;11.506;2023-07-09T14:30:48;5.28;;;3.10;;
15689;SDS011;7945;48.816;11.506;2023-07-09T14:33:16;4.88;;;2.90;;
15689;SDS011;7945;48.816;11.506;2023-07-09T14:35:44;5.43;;;2.90;;
15689;SDS011;7945;48.816;11.506;2023-07-09T14:38:14;5.22;;;3.13;;
15689;SDS011;7945;48.816;11.506;2023-07-09T14:40:45;4.85;;;2.92;;
15689;SDS011;7945;48.816;11.506;2023-07-09T14:43:12;3.78;;;2.72;;
15689;SDS011;7945;48.816;11.506;2023-07-09T14:45:40;4.60;;;3.20;;
15689;SDS011;7945;48.816;11.506;2023-07-09T14:48:10;5.65;;;3.45;;
15689;SDS011;7945;48.816;11.506;2023-07-09T14:50:38;4.07;;;3.03;;
15689;SDS011;7945;48.816;11.506;2023-07-09T14:53:09;4.22;;;3.30;;
15689;SDS011;7945;48.816;11.506;2023-07-09T14:55:38;5.30;;;3.15;;
15689;SDS011;7945;48.816;11.506;2023-07-09T14:58:09;6.15;;;3.53;;
15689;SDS011;7945;48.816;11.506;2023-07-09T15:00:40;7.32;;;3.47;;
15689;SDS011;7945;48.816;11.506;2023-07-09T15:03:09;5.35;;;2.90;;